GTRVO EPSD-EDAH
Flight info
| Callsign | GTRVO |
|---|---|
| Flight time | 0h 16m |
| Altitude | 4500 |
| Route | DCT EPSDA DCT BINKA DCT EDAHE DCT |
| Aircraft | C208/L-SY/S |
Departure
| Time | 2026-04-30 06:32 |
|---|---|
| Airport | Szczecin-Dąbie Airfield (EPSD) |
Arrival
| Time | 2026-04-30 06:49 |
|---|---|
| Airport | Heringsdorf Airport (EDAH) |
| Time | Latitude | Longitude | Altitude | Speed | Heading |
|---|---|---|---|---|---|
| 2026-04-30 06:19 | 53.39602 | 14.62096 | 4 ft | 0 kts | 186° |
| 2026-04-30 06:22 | 53.39601 | 14.62096 | 4 ft | 1 kts | 186° |
| 2026-04-30 06:22 | 53.39586 | 14.62099 | 5 ft | 5 kts | 148° |
| 2026-04-30 06:22 | 53.39568 | 14.62190 | 11 ft | 12 kts | 105° |
| 2026-04-30 06:23 | 53.39533 | 14.62339 | 9 ft | 15 kts | 145° |
| 2026-04-30 06:23 | 53.39456 | 14.62409 | 10 ft | 12 kts | 147° |
| 2026-04-30 06:23 | 53.39396 | 14.62478 | 9 ft | 12 kts | 143° |
| 2026-04-30 06:23 | 53.39342 | 14.62556 | 9 ft | 8 kts | 143° |
| 2026-04-30 06:24 | 53.39288 | 14.62626 | 8 ft | 13 kts | 141° |
| 2026-04-30 06:24 | 53.39201 | 14.62756 | 10 ft | 18 kts | 139° |
| 2026-04-30 06:24 | 53.39138 | 14.62838 | 13 ft | 8 kts | 142° |
| 2026-04-30 06:24 | 53.39124 | 14.62941 | 14 ft | 11 kts | 97° |
| 2026-04-30 06:25 | 53.39109 | 14.63080 | 16 ft | 13 kts | 103° |
| 2026-04-30 06:25 | 53.39086 | 14.63247 | 14 ft | 16 kts | 92° |
| 2026-04-30 06:25 | 53.39092 | 14.63441 | 14 ft | 18 kts | 99° |
| 2026-04-30 06:25 | 53.39064 | 14.63691 | 8 ft | 26 kts | 105° |
| 2026-04-30 06:26 | 53.39039 | 14.63864 | 6 ft | 18 kts | 105° |
| 2026-04-30 06:26 | 53.39041 | 14.63937 | 7 ft | 2 kts | 283° |
| 2026-04-30 06:26 | 53.39042 | 14.63934 | 7 ft | 0 kts | 283° |
| 2026-04-30 06:31 | 53.39044 | 14.63921 | 7 ft | 12 kts | 286° |
| 2026-04-30 06:31 | 53.39119 | 14.63486 | 23 ft | 59 kts | 280° |
| 2026-04-30 06:31 | 53.39180 | 14.62682 | 178 ft | 72 kts | 276° |
| 2026-04-30 06:31 | 53.39222 | 14.61867 | 438 ft | 74 kts | 277° |
| 2026-04-30 06:32 | 53.39308 | 14.60925 | 593 ft | 89 kts | 288° |
| 2026-04-30 06:32 | 53.39558 | 14.59956 | 862 ft | 90 kts | 292° |
| 2026-04-30 06:32 | 53.39796 | 14.58971 | 1113 ft | 96 kts | 288° |
| 2026-04-30 06:32 | 53.40007 | 14.57793 | 1211 ft | 112 kts | 294° |
| 2026-04-30 06:33 | 53.40565 | 14.56890 | 1392 ft | 118 kts | 335° |
| 2026-04-30 06:33 | 53.41310 | 14.56449 | 1734 ft | 107 kts | 336° |
| 2026-04-30 06:33 | 53.41965 | 14.55976 | 2112 ft | 99 kts | 332° |
| 2026-04-30 06:33 | 53.42547 | 14.55409 | 2421 ft | 98 kts | 328° |
| 2026-04-30 06:34 | 53.43139 | 14.54807 | 2708 ft | 100 kts | 329° |
| 2026-04-30 06:34 | 53.43749 | 14.54240 | 2974 ft | 101 kts | 335° |
| 2026-04-30 06:34 | 53.44386 | 14.53735 | 3236 ft | 102 kts | 337° |
| 2026-04-30 06:34 | 53.45059 | 14.53288 | 3463 ft | 106 kts | 340° |
| 2026-04-30 06:35 | 53.45738 | 14.52810 | 3717 ft | 105 kts | 338° |
| 2026-04-30 06:35 | 53.46387 | 14.52246 | 3961 ft | 106 kts | 334° |
| 2026-04-30 06:35 | 53.47028 | 14.51632 | 4195 ft | 106 kts | 333° |
| 2026-04-30 06:35 | 53.47663 | 14.50984 | 4431 ft | 109 kts | 336° |
| 2026-04-30 06:36 | 53.48389 | 14.50407 | 4496 ft | 121 kts | 339° |
| 2026-04-30 06:36 | 53.49186 | 14.49818 | 4534 ft | 129 kts | 340° |
| 2026-04-30 06:36 | 53.50030 | 14.49235 | 4587 ft | 133 kts | 342° |
| 2026-04-30 06:36 | 53.50926 | 14.48733 | 4580 ft | 139 kts | 346° |
| 2026-04-30 06:37 | 53.51864 | 14.48228 | 4562 ft | 143 kts | 341° |
| 2026-04-30 06:37 | 53.52765 | 14.47491 | 4541 ft | 146 kts | 334° |
| 2026-04-30 06:37 | 53.53647 | 14.46643 | 4546 ft | 146 kts | 333° |
| 2026-04-30 06:37 | 53.54527 | 14.45795 | 4566 ft | 146 kts | 333° |
| 2026-04-30 06:38 | 53.55398 | 14.44950 | 4625 ft | 144 kts | 335° |
| 2026-04-30 06:38 | 53.56294 | 14.44182 | 4591 ft | 146 kts | 337° |
| 2026-04-30 06:38 | 53.57216 | 14.43406 | 4513 ft | 150 kts | 336° |
| 2026-04-30 06:38 | 53.58147 | 14.42610 | 4492 ft | 150 kts | 335° |
| 2026-04-30 06:39 | 53.59062 | 14.41766 | 4515 ft | 149 kts | 332° |
| 2026-04-30 06:39 | 53.59957 | 14.40847 | 4440 ft | 152 kts | 332° |
| 2026-04-30 06:39 | 53.60871 | 14.39978 | 4429 ft | 149 kts | 335° |
| 2026-04-30 06:39 | 53.61793 | 14.39218 | 4446 ft | 147 kts | 337° |
| 2026-04-30 06:40 | 53.62725 | 14.38518 | 4449 ft | 147 kts | 340° |
| 2026-04-30 06:40 | 53.63668 | 14.37862 | 4432 ft | 146 kts | 339° |
| 2026-04-30 06:40 | 53.64581 | 14.37178 | 4448 ft | 144 kts | 338° |
| 2026-04-30 06:40 | 53.65490 | 14.36487 | 4451 ft | 143 kts | 340° |
| 2026-04-30 06:41 | 53.66397 | 14.35843 | 4509 ft | 140 kts | 338° |
| 2026-04-30 06:41 | 53.67277 | 14.35111 | 4522 ft | 142 kts | 336° |
| 2026-04-30 06:41 | 53.68179 | 14.34399 | 4489 ft | 144 kts | 339° |
| 2026-04-30 06:41 | 53.69087 | 14.33679 | 4461 ft | 145 kts | 335° |
| 2026-04-30 06:42 | 53.69971 | 14.32842 | 4441 ft | 145 kts | 333° |
| 2026-04-30 06:42 | 53.70837 | 14.31958 | 4430 ft | 145 kts | 332° |
| 2026-04-30 06:42 | 53.71728 | 14.31170 | 4454 ft | 143 kts | 338° |
| 2026-04-30 06:42 | 53.72635 | 14.30490 | 4449 ft | 144 kts | 340° |
| 2026-04-30 06:43 | 53.73570 | 14.29811 | 4400 ft | 147 kts | 339° |
| 2026-04-30 06:43 | 53.74494 | 14.29057 | 4381 ft | 147 kts | 336° |
| 2026-04-30 06:43 | 53.75394 | 14.28258 | 4369 ft | 147 kts | 325° |
| 2026-04-30 06:43 | 53.75812 | 14.26720 | 4476 ft | 154 kts | 279° |
| 2026-04-30 06:44 | 53.75836 | 14.24905 | 4475 ft | 156 kts | 276° |
| 2026-04-30 06:44 | 53.76007 | 14.23233 | 4535 ft | 132 kts | 310° |
| 2026-04-30 06:44 | 53.76735 | 14.22492 | 4372 ft | 126 kts | 345° |
| 2026-04-30 06:44 | 53.77564 | 14.22039 | 4021 ft | 124 kts | 345° |
| 2026-04-30 06:45 | 53.78402 | 14.21639 | 3643 ft | 127 kts | 345° |
| 2026-04-30 06:45 | 53.79252 | 14.21214 | 3239 ft | 128 kts | 343° |
| 2026-04-30 06:45 | 53.80096 | 14.20786 | 2857 ft | 126 kts | 345° |
| 2026-04-30 06:45 | 53.80942 | 14.20376 | 2454 ft | 127 kts | 340° |
| 2026-04-30 06:46 | 53.81738 | 14.19809 | 2092 ft | 125 kts | 337° |
| 2026-04-30 06:46 | 53.82535 | 14.19243 | 1753 ft | 123 kts | 338° |
| 2026-04-30 06:46 | 53.83338 | 14.18757 | 1423 ft | 123 kts | 340° |
| 2026-04-30 06:46 | 53.84136 | 14.18302 | 1093 ft | 118 kts | 339° |
| 2026-04-30 06:47 | 53.84899 | 14.18060 | 932 ft | 108 kts | 3° |
| 2026-04-30 06:47 | 53.85621 | 14.18461 | 897 ft | 110 kts | 16° |
| 2026-04-30 06:47 | 53.86330 | 14.18915 | 834 ft | 105 kts | 15° |
| 2026-04-30 06:47 | 53.86987 | 14.19091 | 660 ft | 87 kts | 342° |
| 2026-04-30 06:48 | 53.87329 | 14.18444 | 389 ft | 74 kts | 290° |
| 2026-04-30 06:48 | 53.87468 | 14.17663 | 207 ft | 64 kts | 286° |
| 2026-04-30 06:48 | 53.87586 | 14.16953 | 132 ft | 63 kts | 287° |
| 2026-04-30 06:48 | 53.87704 | 14.16247 | 70 ft | 56 kts | 285° |
| 2026-04-30 06:49 | 53.87781 | 14.15790 | 74 ft | 26 kts | 285° |
| 2026-04-30 06:49 | 53.87825 | 14.15520 | 75 ft | 23 kts | 285° |
| 2026-04-30 06:49 | 53.87861 | 14.15276 | 79 ft | 8 kts | 234° |
| 2026-04-30 06:49 | 53.87779 | 14.15242 | 77 ft | 12 kts | 194° |
| 2026-04-30 06:50 | 53.87765 | 14.15153 | 77 ft | 10 kts | 277° |
| 2026-04-30 06:50 | 53.87774 | 14.14996 | 77 ft | 16 kts | 276° |
| 2026-04-30 06:50 | 53.87785 | 14.14784 | 77 ft | 18 kts | 275° |
| 2026-04-30 06:50 | 53.87796 | 14.14564 | 77 ft | 20 kts | 274° |
| 2026-04-30 06:51 | 53.87805 | 14.14405 | 77 ft | 11 kts | 273° |
| 2026-04-30 06:51 | 53.87833 | 14.14263 | 77 ft | 15 kts | 301° |
| 2026-04-30 06:51 | 53.87886 | 14.14106 | 75 ft | 14 kts | 299° |
| 2026-04-30 06:51 | 53.87917 | 14.14012 | 74 ft | 8 kts | 299° |
| 2026-04-30 06:52 | 53.87893 | 14.13944 | 74 ft | 8 kts | 259° |
| 2026-04-30 06:52 | 53.87898 | 14.13918 | 75 ft | 0 kts | 310° |